Terminal Aerodrome Forecast
Issued by NWS

Home | Current Version | Previous Version | Graphics & Text | Print | Product List | Glossary On
Versions: 1 2 3 4 5 6 7 8 9 10 11 12 13 14
000
FTUS43 KICT 182341
TAFSLN
TAF
KSLN 182341Z 1900/1924 18015G22KT P6SM FEW070
     FM190200 17012KT P6SM BKN250
     FM191400 19015G22KT P6SM SCT250
     FM191800 21018G28KT P6SM SKC=

USA.gov is the U.S. government's official web portal to all federal, state and local government web resources and services.